Time;durP1;ratioP1;P1;durP2;ratioP2;P2;SDS_P1;SDS_P2;PMS_P1;PMS_P2;Temp;Humidity;BMP_temperature;BMP_pressure;BME280_temperature;BME280_humidity;BME280_pressure;Samples;Min_cycle;Max_cycle;Signal;HPM_P1;HPM_P2
2021/12/16 00:09:21;;;;;;;15.53;11.10;;;7.40;99.90;;;;;;10335261;28;20281;-81
2021/12/16 00:32:59;;;;;;;19.80;12.60;;;7.30;99.90;;;;;;10308075;28;20285;-82
2021/12/16 00:38:22;;;;;;;16.93;11.83;;;7.30;99.90;;;;;;10304851;28;20264;-81
2021/12/16 00:55:07;;;;;;;22.30;12.93;;;7.30;99.90;;;;;;10218845;29;20538;-81
2021/12/16 01:00:58;;;;;;;17.57;13.03;;;7.30;99.90;;;;;;10235077;29;20532;-81
2021/12/16 01:58:34;;;;;;;18.63;12.20;;;7.20;99.90;;;;;;10385443;28;20216;-81
2021/12/16 02:04:13;;;;;;;17.33;10.57;;;7.30;99.90;;;;;;10383058;28;20204;-81
2021/12/16 02:09:44;;;;;;;14.20;8.47;;;7.30;99.90;;;;;;10368425;28;20204;-79
2021/12/16 02:38:29;;;;;;;11.60;4.90;;;7.30;99.90;;;;;;10202283;29;20291;-81
2021/12/16 02:44:12;;;;;;;6.53;5.23;;;7.30;99.90;;;;;;10152529;29;20254;-79
2021/12/16 02:49:44;;;;;;;7.77;5.07;;;7.30;99.90;;;;;;10164324;29;20216;-80
2021/12/16 02:55:26;;;;;;;6.70;4.63;;;7.20;99.90;;;;;;10162961;29;20212;-80
2021/12/16 03:00:56;;;;;;;6.57;4.17;;;7.20;99.90;;;;;;10165334;29;20218;-81
2021/12/16 03:06:21;;;;;;;5.10;4.00;;;7.10;99.90;;;;;;10151993;29;20215;-81
2021/12/16 03:12:35;;;;;;;7.73;3.43;;;7.10;99.90;;;;;;10231909;28;20246;-81
2021/12/16 03:18:00;;;;;;;6.70;3.57;;;7.20;99.90;;;;;;10339457;28;20371;-80
2021/12/16 03:30:00;;;;;;;2.53;1.90;;;7.10;99.90;;;;;;10364057;28;20257;-81
2021/12/16 03:41:30;;;;;;;3.07;2.00;;;7.00;99.90;;;;;;10379081;28;20208;-81
2021/12/16 03:47:13;;;;;;;4.33;2.50;;;7.20;99.90;;;;;;10370743;28;20216;-80
2021/12/16 03:52:55;;;;;;;4.37;2.40;;;7.10;99.90;;;;;;10370492;28;20236;-79
2021/12/16 03:58:38;;;;;;;2.80;2.50;;;7.20;99.90;;;;;;10370431;28;20230;-80
2021/12/16 04:04:04;;;;;;;2.80;2.50;;;7.10;99.90;;;;;;10365395;28;20227;-80
2021/12/16 04:09:31;;;;;;;5.93;2.90;;;7.10;99.90;;;;;;10378898;28;20196;-80
2021/12/16 04:15:36;;;;;;;4.30;3.43;;;7.10;99.90;;;;;;10392746;28;20208;-80
2021/12/16 04:21:00;;;;;;;5.33;3.57;;;7.10;99.90;;;;;;10361775;28;20254;-80
2021/12/16 04:26:28;;;;;;;5.43;3.40;;;7.10;99.90;;;;;;10324550;28;20205;-81
2021/12/16 04:32:10;;;;;;;4.33;3.40;;;7.10;99.90;;;;;;10340295;28;20240;-81
2021/12/16 04:37:34;;;;;;;3.90;2.77;;;7.10;99.90;;;;;;10338093;28;20261;-80
2021/12/16 04:43:02;;;;;;;3.30;2.90;;;7.10;99.90;;;;;;10357151;28;20237;-80
2021/12/16 04:48:36;;;;;;;4.50;2.67;;;7.00;99.90;;;;;;10348909;28;20271;-79
2021/12/16 04:54:23;;;;;;;3.87;2.70;;;7.00;99.90;;;;;;10380358;28;20255;-80
2021/12/16 04:59:48;;;;;;;4.53;3.27;;;7.10;99.90;;;;;;10377882;28;20499;-81
2021/12/16 05:05:31;;;;;;;2.87;2.53;;;7.00;99.90;;;;;;10369632;28;20216;-79
2021/12/16 05:11:15;;;;;;;3.60;2.13;;;7.00;99.90;;;;;;10385339;28;20287;-80
2021/12/16 05:16:59;;;;;;;4.90;2.37;;;7.00;99.90;;;;;;10376245;28;20464;-81
2021/12/16 05:28:26;;;;;;;3.80;2.63;;;7.10;99.90;;;;;;10407999;28;20410;-81
2021/12/16 05:33:52;;;;;;;5.10;3.10;;;7.00;99.90;;;;;;10424643;28;20552;-80
2021/12/16 05:39:17;;;;;;;5.30;2.73;;;7.00;99.90;;;;;;10398990;28;20679;-81
2021/12/16 05:44:56;;;;;;;3.23;2.80;;;7.00;99.90;;;;;;10384911;28;20300;-82
2021/12/16 05:50:23;;;;;;;4.50;2.60;;;7.00;99.90;;;;;;10367111;28;20510;-81
2021/12/16 05:55:47;;;;;;;4.23;2.90;;;7.00;99.90;;;;;;10380016;28;20194;-80
2021/12/16 06:01:29;;;;;;;3.27;2.40;;;7.00;99.90;;;;;;10366856;28;20448;-81
2021/12/16 06:06:52;;;;;;;7.67;3.37;;;7.00;99.90;;;;;;10382674;28;20197;-80
2021/12/16 06:12:34;;;;;;;3.37;3.07;;;7.00;99.90;;;;;;10373578;28;20233;-81
2021/12/16 06:29:39;;;;;;;8.73;4.70;;;7.00;99.90;;;;;;10436923;28;20522;-80
2021/12/16 06:35:03;;;;;;;6.47;3.63;;;7.00;99.90;;;;;;10409005;28;20243;-80
2021/12/16 06:40:45;;;;;;;5.87;4.10;;;7.00;99.90;;;;;;10404515;28;20223;-81
2021/12/16 06:46:36;;;;;;;5.73;3.10;;;7.00;99.90;;;;;;10231666;29;20242;-79
2021/12/16 06:52:05;;;;;;;5.70;3.20;;;7.10;99.90;;;;;;10205193;29;20405;-84
2021/12/16 07:03:20;;;;;;;5.43;4.33;;;7.00;99.90;;;;;;10220809;29;20237;-84
2021/12/16 07:08:45;;;;;;;6.03;2.97;;;7.00;99.90;;;;;;10230526;29;20227;-81
2021/12/16 07:14:15;;;;;;;5.03;2.60;;;6.90;99.90;;;;;;10201385;29;20317;-84
2021/12/16 07:19:56;;;;;;;4.93;2.43;;;7.00;99.90;;;;;;10240909;28;20205;-79
2021/12/16 07:25:29;;;;;;;3.87;2.37;;;7.00;99.90;;;;;;10347712;28;20206;-79
2021/12/16 07:31:11;;;;;;;4.30;2.60;;;7.00;99.90;;;;;;10353343;28;20263;-80
2021/12/16 07:36:40;;;;;;;3.60;2.40;;;7.10;99.90;;;;;;10338748;28;20280;-81
2021/12/16 07:42:03;;;;;;;8.43;3.37;;;7.10;99.90;;;;;;10384204;28;20236;-79
2021/12/16 07:47:25;;;;;;;4.57;2.40;;;7.00;99.90;;;;;;10376201;28;20426;-79
2021/12/16 07:53:07;;;;;;;3.53;1.93;;;7.10;99.90;;;;;;10370393;28;20283;-80
2021/12/16 07:58:30;;;;;;;5.60;3.27;;;7.00;99.90;;;;;;10362817;28;20203;-78
2021/12/16 08:03:55;;;;;;;9.23;4.20;;;7.00;99.90;;;;;;10393474;28;20204;-84
2021/12/16 08:09:41;;;;;;;16.97;8.23;;;7.10;99.90;;;;;;10370017;28;20449;-82
2021/12/16 08:15:16;;;;;;;14.60;7.20;;;7.00;99.90;;;;;;10352140;28;20258;-81
2021/12/16 08:20:58;;;;;;;21.97;7.10;;;7.00;99.90;;;;;;10381054;28;20568;-79
2021/12/16 08:26:21;;;;;;;10.70;3.80;;;7.00;99.90;;;;;;10334851;28;20263;-80
2021/12/16 08:32:04;;;;;;;9.00;3.90;;;7.00;99.90;;;;;;10345108;28;20263;-84
2021/12/16 08:37:42;;;;;;;7.83;4.13;;;7.00;99.90;;;;;;10355647;28;20208;-83
2021/12/16 08:43:20;;;;;;;15.27;5.57;;;7.10;99.90;;;;;;10347083;28;20269;-81
2021/12/16 08:48:47;;;;;;;12.77;4.43;;;7.10;99.90;;;;;;10374809;28;20204;-84
2021/12/16 08:54:15;;;;;;;10.77;4.00;;;7.00;99.90;;;;;;10382549;28;20298;-83
2021/12/16 08:59:57;;;;;;;11.23;4.23;;;7.10;99.90;;;;;;10374952;28;20201;-86
2021/12/16 09:05:39;;;;;;;20.70;7.57;;;7.10;99.90;;;;;;10374950;28;20409;-82
2021/12/16 09:11:05;;;;;;;13.70;4.13;;;7.20;99.90;;;;;;10379316;28;20414;-79
2021/12/16 09:16:31;;;;;;;13.90;4.03;;;7.30;99.90;;;;;;10365709;28;20230;-80
2021/12/16 09:21:55;;;;;;;7.67;2.80;;;7.50;99.90;;;;;;10352117;28;20260;-80
2021/12/16 09:27:28;;;;;;;8.83;3.10;;;7.40;99.90;;;;;;10403713;28;20349;-80
2021/12/16 09:33:00;;;;;;;15.90;6.07;;;7.40;99.90;;;;;;10388699;28;20248;-79
2021/12/16 09:38:25;;;;;;;22.13;8.90;;;7.30;99.90;;;;;;10364550;28;20201;-79
2021/12/16 09:43:53;;;;;;;18.70;6.00;;;7.40;99.90;;;;;;10352271;28;20482;-80
2021/12/16 09:49:24;;;;;;;13.37;4.27;;;7.50;99.90;;;;;;10365452;28;20321;-80
2021/12/16 09:54:53;;;;;;;15.73;5.90;;;7.50;99.90;;;;;;10364545;28;20252;-78
2021/12/16 10:00:34;;;;;;;11.57;4.53;;;7.50;99.90;;;;;;10370736;28;20217;-82
2021/12/16 10:05:57;;;;;;;12.50;3.70;;;7.50;99.90;;;;;;10364612;28;20200;-80
2021/12/16 10:11:43;;;;;;;13.87;4.27;;;7.50;99.90;;;;;;10371374;28;20221;-79
2021/12/16 10:17:24;;;;;;;13.93;4.07;;;7.50;99.90;;;;;;10340566;28;20213;-78
2021/12/16 10:23:22;;;;;;;10.87;3.50;;;7.40;99.90;;;;;;10378119;28;20455;-80
2021/12/16 10:28:48;;;;;;;10.50;3.33;;;7.50;99.90;;;;;;10365778;28;20247;-77
2021/12/16 10:34:30;;;;;;;15.37;4.57;;;7.40;99.90;;;;;;10341730;28;20272;-82
2021/12/16 10:39:52;;;;;;;18.33;6.30;;;7.40;99.90;;;;;;10357835;28;20436;-79
2021/12/16 10:45:48;;;;;;;15.30;5.10;;;7.50;99.90;;;;;;10375419;28;20260;-79
2021/12/16 10:51:19;;;;;;;20.60;9.80;;;7.50;99.90;;;;;;10376084;28;20224;-82
2021/12/16 10:57:09;;;;;;;14.57;5.43;;;7.40;99.90;;;;;;10393709;28;20218;-80
2021/12/16 11:02:50;;;;;;;15.57;5.37;;;7.50;99.90;;;;;;10380406;28;20406;-80
2021/12/16 11:08:29;;;;;;;15.70;4.33;;;7.50;99.90;;;;;;10352106;28;20578;-82
2021/12/16 11:14:07;;;;;;;18.67;5.27;;;7.40;99.90;;;;;;10374505;28;20230;-85
2021/12/16 11:20:10;;;;;;;18.87;3.50;;;7.60;99.90;;;;;;10381026;28;20235;-82
2021/12/16 11:25:40;;;;;;;15.60;4.97;;;7.70;99.90;;;;;;10402097;28;20510;-89
2021/12/16 11:31:12;;;;;;;12.50;3.93;;;7.70;99.90;;;;;;10371042;28;20200;-84
2021/12/16 11:36:53;;;;;;;18.93;6.07;;;7.70;99.90;;;;;;10365474;28;20243;-90
2021/12/16 11:42:15;;;;;;;26.87;8.27;;;7.60;99.90;;;;;;10348346;28;20303;-87
2021/12/16 11:47:56;;;;;;;20.13;6.90;;;7.70;99.90;;;;;;10369157;28;20496;-82
2021/12/16 11:53:39;;;;;;;19.40;5.83;;;7.60;99.90;;;;;;10360754;28;20247;-83
2021/12/16 11:59:05;;;;;;;24.43;7.20;;;7.50;99.90;;;;;;10373926;28;20200;-82
2021/12/16 12:04:35;;;;;;;22.47;6.50;;;7.60;99.90;;;;;;10374139;28;20219;-84
2021/12/16 12:10:33;;;;;;;20.87;5.27;;;7.60;99.90;;;;;;10379657;28;20212;-82
2021/12/16 12:16:05;;;;;;;18.80;4.13;;;7.50;57.40;;;;;;10374668;28;20295;-91
2021/12/16 12:21:58;;;;;;;18.47;4.33;;;7.50;46.00;;;;;;10379370;28;20382;-84
2021/12/16 12:27:40;;;;;;;15.60;4.27;;;7.40;50.80;;;;;;10393809;28;20243;-86
2021/12/16 12:33:21;;;;;;;18.70;4.57;;;7.30;58.80;;;;;;10398848;28;20306;-79
2021/12/16 12:39:09;;;;;;;18.07;3.93;;;7.20;63.60;;;;;;10386677;28;20231;-86
2021/12/16 12:44:50;;;;;;;20.90;4.10;;;7.30;52.30;;;;;;10388650;28;20226;-83
2021/12/16 12:50:29;;;;;;;23.63;6.00;;;7.20;57.90;;;;;;10371287;28;20289;-84
2021/12/16 12:56:19;;;;;;;16.80;4.30;;;7.20;62.60;;;;;;10374304;28;20554;-84
2021/12/16 13:01:47;;;;;;;27.53;5.67;;;7.20;62.30;;;;;;10367548;28;20275;-85
2021/12/16 13:07:21;;;;;;;23.37;6.47;;;7.20;70.60;;;;;;10368142;28;20215;-89
2021/12/16 13:13:06;;;;;;;22.07;5.47;;;7.10;70.60;;;;;;10386273;28;20294;-90
2021/12/16 13:30:53;;;;;;;23.57;5.40;;;7.10;41.70;;;;;;10386697;28;20214;-87
2021/12/16 13:36:49;;;;;;;26.30;6.00;;;7.10;17.30;;;;;;10375018;28;20302;-90
2021/12/16 13:42:42;;;;;;;27.30;6.27;;;6.90;18.80;;;;;;10365646;28;20239;-89
2021/12/16 14:06:17;;;;;;;26.87;6.23;;;6.70;34.80;;;;;;10342371;28;20212;-89
2021/12/16 14:13:17;;;;;;;28.80;7.40;;;6.60;33.70;;;;;;10342742;28;20262;-86
2021/12/16 14:22:58;;;;;;;24.93;5.80;;;6.50;46.00;;;;;;10354662;28;20465;-87
2021/12/16 14:42:33;;;;;;;30.60;6.07;;;6.30;71.40;;;;;;10367030;28;20299;-88
2021/12/16 14:54:02;;;;;;;27.40;5.33;;;6.30;76.20;;;;;;10394120;28;20239;-86
2021/12/16 14:59:30;;;;;;;32.80;7.40;;;6.30;60.20;;;;;;10366612;28;20200;-85
2021/12/16 15:05:29;;;;;;;33.00;8.97;;;6.30;67.60;;;;;;10370950;28;20272;-85
2021/12/16 15:11:13;;;;;;;33.97;7.43;;;6.20;79.90;;;;;;10392297;28;20208;-82
2021/12/16 15:17:05;;;;;;;27.00;7.67;;;6.20;77.50;;;;;;10379431;28;20231;-81
2021/12/16 15:40:08;;;;;;;33.43;7.07;;;6.20;91.30;;;;;;10361705;28;20207;-84
2021/12/16 15:45:37;;;;;;;33.17;9.23;;;6.10;93.40;;;;;;10381631;28;20269;-85
2021/12/16 15:51:23;;;;;;;18.03;5.23;;;6.00;93.60;;;;;;10369252;28;20246;-85
2021/12/16 15:57:06;;;;;;;34.30;9.00;;;6.10;91.80;;;;;;10368276;28;20230;-86
2021/12/16 16:02:32;;;;;;;42.27;9.47;;;6.10;91.20;;;;;;10361222;28;20223;-85
2021/12/16 16:08:00;;;;;;;37.30;6.80;;;6.00;92.40;;;;;;10381806;28;20204;-91
2021/12/16 16:13:26;;;;;;;36.63;7.93;;;6.00;95.70;;;;;;10368148;28;20880;-83
2021/12/16 16:18:58;;;;;;;28.23;7.33;;;6.00;95.10;;;;;;10363019;28;20210;-82
2021/12/16 16:24:33;;;;;;;30.97;8.20;;;5.90;98.20;;;;;;10368782;28;20208;-82
2021/12/16 16:30:05;;;;;;;28.80;7.53;;;5.90;98.70;;;;;;10364147;28;20576;-81
2021/12/16 16:36:01;;;;;;;33.53;8.10;;;6.00;97.80;;;;;;10383542;28;20246;-82
2021/12/16 16:41:28;;;;;;;33.70;8.23;;;5.90;99.90;;;;;;10351414;28;20199;-83
2021/12/16 16:47:01;;;;;;;29.67;6.43;;;5.90;97.30;;;;;;10363827;28;20444;-83
2021/12/16 16:52:50;;;;;;;28.63;7.00;;;5.90;97.60;;;;;;10351852;28;20207;-82
2021/12/16 16:58:15;;;;;;;27.30;5.93;;;5.90;99.90;;;;;;10380593;28;20196;-82
2021/12/16 17:03:57;;;;;;;26.87;7.07;;;5.90;99.60;;;;;;10382924;28;20216;-83
2021/12/16 17:09:40;;;;;;;36.37;11.40;;;5.90;99.90;;;;;;10357950;28;20201;-82
2021/12/16 17:21:24;;;;;;;38.87;10.07;;;6.00;97.50;;;;;;10299860;28;20209;-80
2021/12/16 17:27:08;;;;;;;26.60;5.40;;;5.90;99.10;;;;;;10277049;29;20248;-80
2021/12/16 17:32:41;;;;;;;28.77;8.13;;;5.90;95.50;;;;;;10248223;29;20206;-81
2021/12/16 17:38:14;;;;;;;30.77;7.63;;;5.90;99.90;;;;;;10261323;29;20241;-83
2021/12/16 17:43:42;;;;;;;31.93;6.97;;;5.90;97.40;;;;;;10263711;28;20357;-82
2021/12/16 17:49:24;;;;;;;33.97;7.17;;;5.90;97.90;;;;;;10294547;28;20225;-82
2021/12/16 17:54:51;;;;;;;41.83;9.40;;;5.90;94.70;;;;;;10357840;28;20319;-83
2021/12/16 18:00:28;;;;;;;36.97;10.93;;;5.90;97.10;;;;;;10363399;28;20204;-83
2021/12/16 18:06:14;;;;;;;47.13;10.90;;;5.90;98.20;;;;;;10377454;28;20513;-80
2021/12/16 18:12:07;;;;;;;36.17;8.53;;;5.90;96.30;;;;;;10380110;28;20216;-81
2021/12/16 18:18:07;;;;;;;33.30;8.37;;;5.90;95.40;;;;;;10339959;28;20205;-80
2021/12/16 18:23:32;;;;;;;26.50;6.17;;;5.90;96.50;;;;;;10368445;28;20215;-81
2021/12/16 18:29:14;;;;;;;29.83;7.40;;;5.90;92.50;;;;;;10390958;28;20231;-81
2021/12/16 18:34:51;;;;;;;32.70;8.43;;;5.90;95.90;;;;;;10374188;28;20235;-80
2021/12/16 18:40:20;;;;;;;25.80;6.13;;;5.80;96.10;;;;;;10373406;28;20215;-82
2021/12/16 18:46:01;;;;;;;23.70;5.63;;;5.80;97.50;;;;;;10349020;28;20243;-82
2021/12/16 18:57:23;;;;;;;25.37;7.30;;;5.80;99.00;;;;;;10406519;28;20281;-83
2021/12/16 19:03:04;;;;;;;27.03;5.40;;;5.80;98.90;;;;;;10381203;28;20260;-82
2021/12/16 19:08:28;;;;;;;25.10;6.00;;;5.80;96.30;;;;;;10376066;28;20200;-80
2021/12/16 19:13:51;;;;;;;26.27;6.70;;;5.90;95.60;;;;;;10372628;28;20247;-81
2021/12/16 19:19:15;;;;;;;28.03;5.90;;;5.90;95.40;;;;;;10372668;28;20197;-81
2021/12/16 19:25:01;;;;;;;30.83;6.73;;;5.80;97.10;;;;;;10369361;28;20213;-80
2021/12/16 19:30:28;;;;;;;28.20;5.67;;;5.90;94.90;;;;;;10440602;28;20495;-82
2021/12/16 19:36:13;;;;;;;30.33;5.57;;;5.90;91.70;;;;;;10421253;28;20286;-83
2021/12/16 19:41:46;;;;;;;22.20;5.30;;;5.90;92.30;;;;;;10397980;28;20256;-82
2021/12/16 19:47:11;;;;;;;25.73;5.33;;;5.90;94.00;;;;;;10333465;28;20204;-83
2021/12/16 19:52:43;;;;;;;27.50;6.30;;;5.80;98.00;;;;;;10329360;28;20205;-82
2021/12/16 19:58:09;;;;;;;25.40;6.47;;;5.80;96.70;;;;;;10340471;28;20222;-83
2021/12/16 20:03:34;;;;;;;25.00;5.47;;;5.80;96.70;;;;;;10386170;28;20231;-83
2021/12/16 20:09:18;;;;;;;31.20;6.10;;;5.80;94.00;;;;;;10400563;28;20207;-82
2021/12/16 20:15:05;;;;;;;27.43;5.40;;;5.80;96.90;;;;;;10387083;28;20633;-82
2021/12/16 20:20:44;;;;;;;19.83;4.90;;;5.70;98.80;;;;;;10383184;28;20271;-82
2021/12/16 20:26:31;;;;;;;27.47;5.47;;;5.80;99.90;;;;;;10352693;28;20209;-83
2021/12/16 20:31:59;;;;;;;27.50;6.37;;;5.70;96.10;;;;;;10329756;28;20279;-82
2021/12/16 20:37:25;;;;;;;22.83;5.57;;;5.70;99.90;;;;;;10346444;28;20231;-82
2021/12/16 20:43:19;;;;;;;28.93;5.17;;;5.70;98.20;;;;;;10355676;28;20546;-83
2021/12/16 20:49:37;;;;;;;25.53;5.03;;;5.70;99.90;;;;;;10377883;28;20210;-83
2021/12/16 20:55:17;;;;;;;21.50;4.27;;;5.80;99.90;;;;;;10171902;29;20311;-83
2021/12/16 21:01:06;;;;;;;24.83;4.90;;;5.70;98.40;;;;;;10172297;29;20261;-83
2021/12/16 21:06:49;;;;;;;28.43;6.43;;;5.70;99.90;;;;;;10188937;29;20216;-82
2021/12/16 21:12:30;;;;;;;42.87;11.33;;;5.70;99.60;;;;;;10187914;29;20246;-82
2021/12/16 21:17:57;;;;;;;24.93;6.20;;;5.70;97.80;;;;;;10171140;29;20216;-83
2021/12/16 21:23:39;;;;;;;30.17;8.13;;;5.70;98.80;;;;;;10200727;29;20278;-83
2021/12/16 21:29:06;;;;;;;21.37;5.43;;;5.70;98.70;;;;;;10279777;28;20272;-82
2021/12/16 21:34:34;;;;;;;27.53;5.80;;;5.70;95.40;;;;;;10360570;28;20601;-83
2021/12/16 21:40:16;;;;;;;28.57;6.50;;;5.70;93.00;;;;;;10348821;28;20395;-82
2021/12/16 21:45:44;;;;;;;24.23;5.27;;;5.70;91.60;;;;;;10370977;28;20237;-81
2021/12/16 21:51:09;;;;;;;25.93;5.03;;;5.80;99.90;;;;;;10370571;28;20279;-83
2021/12/16 21:56:33;;;;;;;24.07;5.00;;;5.70;99.90;;;;;;10368911;28;20226;-82
2021/12/16 22:02:17;;;;;;;32.90;5.50;;;5.70;96.70;;;;;;10352143;28;20219;-83
2021/12/16 22:07:59;;;;;;;17.20;3.93;;;5.70;94.00;;;;;;10348287;28;20258;-82
2021/12/16 22:13:40;;;;;;;30.53;5.60;;;5.60;94.10;;;;;;10369643;28;20227;-82
2021/12/16 22:19:06;;;;;;;25.13;5.30;;;5.70;92.00;;;;;;10382831;28;20291;-82
2021/12/16 22:24:48;;;;;;;24.10;4.93;;;5.60;96.20;;;;;;10376522;28;20211;-82
2021/12/16 22:30:29;;;;;;;21.93;4.67;;;5.60;94.20;;;;;;10376487;28;20204;-82
2021/12/16 22:35:58;;;;;;;27.40;4.77;;;5.50;93.40;;;;;;10368651;28;20228;-82
2021/12/16 22:41:22;;;;;;;21.33;5.13;;;5.50;94.70;;;;;;10368045;28;20195;-83
2021/12/16 22:47:05;;;;;;;20.13;5.30;;;5.40;96.40;;;;;;10376174;28;20210;-82
2021/12/16 22:52:33;;;;;;;24.80;4.90;;;5.50;96.90;;;;;;10354884;28;20226;-82
2021/12/16 22:57:55;;;;;;;22.57;5.40;;;5.50;99.90;;;;;;10367416;28;20519;-83
2021/12/16 23:03:22;;;;;;;16.87;4.37;;;5.40;99.90;;;;;;10327339;28;20219;-82
2021/12/16 23:09:07;;;;;;;21.63;4.40;;;5.50;99.90;;;;;;10344792;28;20247;-83
2021/12/16 23:14:31;;;;;;;23.47;4.37;;;5.50;99.90;;;;;;10360046;28;20227;-83
2021/12/16 23:26:02;;;;;;;24.93;4.53;;;5.50;99.80;;;;;;10385086;28;20216;-83
2021/12/16 23:31:25;;;;;;;25.93;4.30;;;5.50;99.90;;;;;;10379966;28;20208;-82
2021/12/16 23:37:06;;;;;;;22.67;5.13;;;5.40;99.90;;;;;;10384989;28;20546;-83
2021/12/16 23:53:51;;;;;;;16.63;4.23;;;5.40;99.90;;;;;;10396549;28;20229;-83
2021/12/16 23:59:17;;;;;;;17.13;4.50;;;5.40;99.90;;;;;;10381977;28;20229;-83
